Time;durP1;ratioP1;P1;durP2;ratioP2;P2;SDS_P1;SDS_P2;PMS_P1;PMS_P2;Temp;Humidity;BMP_temperature;BMP_pressure;BME280_temperature;BME280_humidity;BME280_pressure;Samples;Min_cycle;Max_cycle;Signal;HPM_P1;HPM_P2
2021/04/22 00:01:30;;;;;;;7.60;5.03;;;154.20;2252.80;;;;;;5033521;28;20060;-69
2021/04/22 00:03:56;;;;;;;8.35;5.28;;;154.20;2252.80;;;;;;5034131;28;20029;-70
2021/04/22 00:06:21;;;;;;;8.52;5.07;;;154.20;2252.80;;;;;;5030953;28;20155;-70
2021/04/22 00:08:48;;;;;;;7.53;4.80;;;154.20;2252.80;;;;;;5034167;28;20025;-70
2021/04/22 00:11:14;;;;;;;8.02;5.03;;;154.20;2252.80;;;;;;5033607;28;20037;-70
2021/04/22 00:13:40;;;;;;;7.63;4.88;;;154.10;2252.80;;;;;;5033866;28;20532;-70
2021/04/22 00:16:07;;;;;;;7.03;5.05;;;154.10;2252.80;;;;;;5031113;28;20438;-71
2021/04/22 00:18:33;;;;;;;7.57;4.72;;;154.10;2252.80;;;;;;5033975;28;20634;-70
2021/04/22 00:20:59;;;;;;;6.13;4.35;;;154.10;2252.80;;;;;;5033524;28;20598;-71
2021/04/22 00:23:25;;;;;;;8.25;4.07;;;154.00;2252.80;;;;;;5033872;28;20034;-69
2021/04/22 00:25:51;;;;;;;10.05;4.90;;;154.00;2252.80;;;;;;5033624;28;20025;-70
2021/04/22 00:28:17;;;;;;;6.43;4.10;;;154.00;2252.80;;;;;;5033435;28;20477;-70
2021/04/22 00:30:45;;;;;;;8.15;4.70;;;154.00;2252.80;;;;;;5033504;28;20029;-69
2021/04/22 00:33:22;;;;;;;6.70;4.88;;;154.00;2252.80;;;;;;5031702;28;20021;-70
2021/04/22 00:35:48;;;;;;;7.10;4.70;;;153.90;2252.80;;;;;;5031648;28;20368;-70
2021/04/22 00:38:14;;;;;;;7.15;4.63;;;153.90;2252.80;;;;;;5036296;28;20033;-70
2021/04/22 00:40:41;;;;;;;10.45;5.00;;;153.90;2252.80;;;;;;5035763;28;20485;-69
2021/04/22 00:43:10;;;;;;;10.20;5.60;;;153.90;2252.80;;;;;;5039532;28;20021;-70
2021/04/22 00:45:42;;;;;;;7.57;4.80;;;153.90;2252.80;;;;;;5039529;28;20446;-71
2021/04/22 00:48:09;;;;;;;8.48;4.63;;;153.90;2252.80;;;;;;5039784;28;20042;-70
2021/04/22 00:50:37;;;;;;;6.53;4.45;;;153.90;2252.80;;;;;;5039990;28;20048;-69
2021/04/22 00:53:03;;;;;;;6.57;4.65;;;153.90;2252.80;;;;;;5039702;28;20025;-70
2021/04/22 00:55:30;;;;;;;5.97;4.43;;;153.90;2252.80;;;;;;5039935;28;20029;-70
2021/04/22 00:57:57;;;;;;;6.63;4.43;;;153.90;2252.80;;;;;;5040233;28;20032;-70
2021/04/22 01:00:31;;;;;;;6.05;4.70;;;153.90;2252.80;;;;;;5039606;28;20108;-70
2021/04/22 01:02:57;;;;;;;6.00;4.32;;;153.80;2252.80;;;;;;5039886;28;20032;-70
2021/04/22 01:05:31;;;;;;;9.40;4.55;;;153.80;2252.80;;;;;;5039675;28;20033;-71
2021/04/22 01:07:57;;;;;;;9.50;4.97;;;153.80;2252.80;;;;;;5039434;28;20094;-71
2021/04/22 01:10:23;;;;;;;6.07;4.20;;;153.80;2252.80;;;;;;5039570;28;20407;-70
2021/04/22 01:12:50;;;;;;;6.50;4.28;;;153.70;2252.80;;;;;;5039653;28;20407;-71
2021/04/22 01:15:20;;;;;;;8.65;5.45;;;153.70;2252.80;;;;;;5039044;28;20029;-70
2021/04/22 01:17:46;;;;;;;6.35;4.22;;;153.70;2252.80;;;;;;5039833;28;20029;-69
2021/04/22 01:20:31;;;;;;;6.78;4.15;;;153.70;2252.80;;;;;;5039491;28;20029;-71
2021/04/22 01:23:00;;;;;;;10.55;5.28;;;153.60;2252.80;;;;;;5038938;28;20056;-70
2021/04/22 01:25:27;;;;;;;;;;;153.60;2252.80;;;;;;5039757;28;20029;-70
2021/04/22 01:27:53;;;;;;;7.93;4.90;;;128.90;2252.80;;;;;;5039665;28;19928;-70
2021/04/22 01:30:32;;;;;;;7.57;5.05;;;128.90;2252.80;;;;;;5038531;28;20376;-69
2021/04/22 01:32:58;;;;;;;7.32;4.60;;;128.80;2252.80;;;;;;5039585;28;20103;-70
2021/04/22 01:35:28;;;;;;;7.22;4.60;;;128.80;2252.80;;;;;;5038703;28;20057;-70
2021/04/22 01:37:55;;;;;;;7.82;4.80;;;128.80;2252.80;;;;;;5039316;28;20178;-71
2021/04/22 01:40:21;;;;;;;7.22;4.32;;;128.80;2252.80;;;;;;5039426;28;20311;-70
2021/04/22 01:42:47;;;;;;;7.55;4.80;;;128.70;2252.80;;;;;;5038828;28;20375;-70
2021/04/22 01:45:14;;;;;;;6.72;4.38;;;128.70;2252.80;;;;;;5038941;28;20095;-71
2021/04/22 01:47:40;;;;;;;8.23;4.10;;;128.70;2252.80;;;;;;5038990;28;20414;-69
2021/04/22 01:50:09;;;;;;;9.13;4.28;;;128.70;2252.80;;;;;;5038647;28;20135;-70
2021/04/22 01:52:36;;;;;;;7.78;4.70;;;128.80;2252.80;;;;;;5038122;28;20071;-69
2021/04/22 01:55:04;;;;;;;7.85;4.57;;;128.80;2252.80;;;;;;5038157;28;20037;-70
2021/04/22 01:57:30;;;;;;;10.25;5.00;;;128.80;2252.80;;;;;;5038807;28;20028;-70
2021/04/22 01:59:56;;;;;;;7.25;4.00;;;128.90;2252.80;;;;;;5039001;28;20033;-69
2021/04/22 02:02:22;;;;;;;5.88;3.95;;;128.90;2252.80;;;;;;5038988;28;20057;-69
2021/04/22 02:04:47;;;;;;;8.38;4.60;;;128.90;2252.80;;;;;;5038641;28;20029;-69
2021/04/22 02:07:14;;;;;;;6.25;4.10;;;128.90;2252.80;;;;;;5038572;28;20107;-70
2021/04/22 02:09:39;;;;;;;6.00;4.03;;;128.90;2252.80;;;;;;5038259;28;20030;-70
2021/04/22 02:12:06;;;;;;;5.95;4.00;;;128.90;2252.80;;;;;;5038497;28;20067;-70
2021/04/22 02:14:32;;;;;;;6.28;4.07;;;128.90;2252.80;;;;;;5038059;28;20037;-71
2021/04/22 02:16:58;;;;;;;9.48;5.07;;;128.80;2252.80;;;;;;5037808;28;20071;-70
2021/04/22 02:19:24;;;;;;;6.75;4.38;;;128.80;2252.80;;;;;;5037742;28;20029;-70
2021/04/22 02:21:49;;;;;;;6.05;4.05;;;128.90;2252.80;;;;;;5038306;28;20032;-69
2021/04/22 02:24:16;;;;;;;6.07;4.20;;;128.90;2252.80;;;;;;5038223;28;20048;-71
2021/04/22 02:26:42;;;;;;;9.88;4.53;;;128.90;2252.80;;;;;;5037708;28;20017;-70
2021/04/22 02:29:08;;;;;;;6.78;4.18;;;128.90;2252.80;;;;;;5037892;28;20494;-70
2021/04/22 02:31:34;;;;;;;6.22;4.25;;;128.90;2252.80;;;;;;5038143;28;20185;-70
2021/04/22 02:34:00;;;;;;;8.15;4.88;;;128.90;2252.80;;;;;;5037620;28;20163;-70
2021/04/22 02:36:26;;;;;;;7.38;4.70;;;128.80;2252.80;;;;;;5037764;28;20430;-70
2021/04/22 02:38:51;;;;;;;7.80;4.70;;;128.80;2252.80;;;;;;5037980;28;20025;-70
2021/04/22 02:41:17;;;;;;;6.60;4.55;;;128.80;2252.80;;;;;;5037927;28;20032;-70
2021/04/22 02:43:43;;;;;;;8.05;4.50;;;128.70;2252.80;;;;;;5037916;28;20030;-70
2021/04/22 02:46:09;;;;;;;6.28;4.63;;;128.80;2252.80;;;;;;5037557;28;20036;-69
2021/04/22 02:48:35;;;;;;;6.68;4.20;;;128.70;2252.80;;;;;;5037643;28;20072;-70
2021/04/22 02:51:01;;;;;;;6.72;4.13;;;128.60;2252.80;;;;;;5038026;28;20029;-70
2021/04/22 02:53:27;;;;;;;7.22;4.72;;;128.60;2252.80;;;;;;5036793;28;20090;-69
2021/04/22 02:55:53;;;;;;;9.70;4.72;;;128.60;2252.80;;;;;;5037691;28;20033;-70
2021/04/22 02:58:20;;;;;;;8.77;4.28;;;128.60;2252.80;;;;;;5037620;28;20029;-70
2021/04/22 03:00:47;;;;;;;6.80;4.47;;;128.60;2252.80;;;;;;5037338;28;20032;-70
2021/04/22 03:03:13;;;;;;;9.77;4.50;;;128.60;2252.80;;;;;;5037875;28;20301;-70
2021/04/22 03:05:39;;;;;;;5.03;3.40;;;128.60;2252.80;;;;;;5036916;28;20025;-70
2021/04/22 03:08:06;;;;;;;6.22;3.78;;;128.60;2252.80;;;;;;5037238;28;20033;-69
2021/04/22 03:10:33;;;;;;;6.90;4.20;;;128.60;2252.80;;;;;;5037728;28;20030;-70
2021/04/22 03:12:59;;;;;;;8.25;3.97;;;128.60;2252.80;;;;;;5037160;28;20021;-69
2021/04/22 03:15:25;;;;;;;6.20;4.03;;;128.50;2252.80;;;;;;5036283;28;20457;-69
2021/04/22 03:17:53;;;;;;;5.95;4.13;;;128.50;2252.80;;;;;;5037114;28;20025;-69
2021/04/22 03:20:21;;;;;;;8.18;4.88;;;128.40;2252.80;;;;;;5037214;28;20131;-70
2021/04/22 03:22:48;;;;;;;7.57;4.85;;;128.40;2252.80;;;;;;5037064;28;20021;-70
2021/04/22 03:25:15;;;;;;;7.85;4.50;;;128.30;2252.80;;;;;;5037084;28;20423;-69
2021/04/22 03:27:42;;;;;;;6.65;4.55;;;128.30;2252.80;;;;;;5037570;28;20018;-70
2021/04/22 03:30:11;;;;;;;6.03;4.78;;;128.40;2252.80;;;;;;5036938;28;20025;-70
2021/04/22 03:32:37;;;;;;;7.03;4.38;;;128.40;2252.80;;;;;;5037411;28;20358;-70
2021/04/22 03:35:04;;;;;;;7.47;3.85;;;128.40;2252.80;;;;;;5036701;28;20049;-70
2021/04/22 03:37:30;;;;;;;8.88;4.63;;;128.30;2252.80;;;;;;5037178;28;20052;-70
2021/04/22 03:39:57;;;;;;;6.45;4.15;;;128.40;2252.80;;;;;;5036852;28;20052;-70
2021/04/22 03:42:23;;;;;;;6.65;3.92;;;128.30;2252.80;;;;;;5036463;28;20052;-69
2021/04/22 03:44:49;;;;;;;9.10;4.53;;;128.30;2252.80;;;;;;5019445;28;20033;-69
2021/04/22 03:47:15;;;;;;;10.13;4.95;;;128.40;2252.80;;;;;;5037112;28;20440;-69
2021/04/22 03:49:43;;;;;;;16.52;5.30;;;128.40;2252.80;;;;;;5036820;28;20030;-70
2021/04/22 03:52:09;;;;;;;6.93;3.92;;;128.30;2252.80;;;;;;5036032;28;20021;-70
2021/04/22 03:54:35;;;;;;;8.65;5.22;;;128.30;2252.80;;;;;;5036380;28;20034;-70
2021/04/22 03:57:02;;;;;;;9.05;5.40;;;128.40;2252.80;;;;;;5036111;28;20032;-71
2021/04/22 03:59:28;;;;;;;6.55;4.70;;;128.40;2252.80;;;;;;5036262;28;20060;-70
2021/04/22 04:01:54;;;;;;;7.68;4.97;;;128.40;2252.80;;;;;;5036052;28;20327;-70
2021/04/22 04:04:20;;;;;;;8.15;4.72;;;128.50;2252.80;;;;;;5036687;28;20105;-69
2021/04/22 04:06:46;;;;;;;5.95;3.95;;;128.50;2252.80;;;;;;5036859;28;20053;-69
2021/04/22 04:09:12;;;;;;;6.63;4.55;;;128.50;2252.80;;;;;;5036813;28;20029;-70
2021/04/22 04:11:38;;;;;;;7.38;4.78;;;128.50;2252.80;;;;;;5035969;28;20044;-70
2021/04/22 04:14:04;;;;;;;8.57;4.07;;;128.60;2252.80;;;;;;5036156;28;20037;-70
2021/04/22 04:16:30;;;;;;;7.07;4.18;;;128.60;2252.80;;;;;;5037776;28;20029;-70
2021/04/22 04:18:56;;;;;;;5.82;4.28;;;128.70;2252.80;;;;;;5040022;28;20052;-70
2021/04/22 04:21:22;;;;;;;8.68;3.95;;;128.70;2252.80;;;;;;5040364;28;20418;-69
2021/04/22 04:23:49;;;;;;;9.68;4.88;;;128.70;2252.80;;;;;;5040615;28;20087;-70
2021/04/22 04:26:15;;;;;;;10.00;3.95;;;128.80;2252.80;;;;;;5040774;28;20113;-69
2021/04/22 04:28:41;;;;;;;9.80;5.10;;;128.90;2252.80;;;;;;5040444;28;20315;-70
2021/04/22 04:31:07;;;;;;;7.50;4.28;;;128.90;2252.80;;;;;;5040477;28;20088;-70
2021/04/22 04:33:33;;;;;;;9.27;4.80;;;153.60;2252.80;;;;;;5040018;28;20039;-70
2021/04/22 04:35:58;;;;;;;5.78;4.13;;;153.70;2252.80;;;;;;5040178;28;20064;-68
2021/04/22 04:38:24;;;;;;;10.75;5.40;;;153.70;2252.80;;;;;;5040043;28;20036;-70
2021/04/22 04:40:50;;;;;;;16.35;7.10;;;153.80;2252.80;;;;;;5039668;28;20076;-69
2021/04/22 04:43:16;;;;;;;14.85;7.57;;;153.90;2252.80;;;;;;5040171;28;20021;-69
2021/04/22 04:45:42;;;;;;;57.10;31.55;;;154.00;2252.80;;;;;;5039608;28;20037;-70
2021/04/22 04:48:08;;;;;;;20.77;13.55;;;154.10;2252.80;;;;;;5040430;28;20029;-69
2021/04/22 04:50:34;;;;;;;22.08;16.25;;;154.20;2252.80;;;;;;5040338;28;20519;-69
2021/04/22 04:53:00;;;;;;;9.55;5.32;;;154.30;2252.80;;;;;;5039757;28;20164;-70
2021/04/22 04:55:25;;;;;;;46.55;21.40;;;154.40;2252.80;;;;;;5038606;28;20088;-69
2021/04/22 04:57:51;;;;;;;34.60;14.65;;;154.50;2252.80;;;;;;5040144;28;20099;-70
2021/04/22 05:00:17;;;;;;;23.98;10.48;;;179.20;2252.80;;;;;;5039584;28;20033;-70
2021/04/22 05:02:44;;;;;;;12.68;6.85;;;179.40;2252.80;;;;;;5039746;28;20065;-69
2021/04/22 05:05:11;;;;;;;93.22;53.25;;;179.50;2252.80;;;;;;5039726;28;20033;-69
2021/04/22 05:07:38;;;;;;;158.88;78.43;;;179.70;2252.80;;;;;;5039806;28;20112;-70
2021/04/22 05:10:06;;;;;;;148.98;76.93;;;179.80;2252.80;;;;;;5039975;28;20414;-70
2021/04/22 05:12:32;;;;;;;144.60;77.47;;;180.00;2252.80;;;;;;5039283;28;20029;-70
2021/04/22 05:14:57;;;;;;;91.40;56.85;;;180.00;2252.80;;;;;;5038671;28;20441;-69
2021/04/22 05:17:24;;;;;;;54.20;36.65;;;204.80;2252.80;;;;;;5036799;28;20022;-70
2021/04/22 05:19:50;;;;;;;13.70;9.20;;;205.00;2252.80;;;;;;5038151;28;20112;-70
2021/04/22 05:22:16;;;;;;;10.73;5.32;;;205.10;2252.80;;;;;;5039585;28;20105;-70
2021/04/22 05:24:42;;;;;;;12.50;5.63;;;205.10;2252.80;;;;;;5038921;28;20025;-70
2021/04/22 05:27:08;;;;;;;12.77;7.35;;;205.10;2252.80;;;;;;5037943;28;20029;-69
2021/04/22 05:29:36;;;;;;;13.52;7.65;;;205.10;2252.80;;;;;;5039153;28;20185;-69
2021/04/22 05:32:03;;;;;;;13.45;5.70;;;205.10;2252.80;;;;;;5039653;28;20082;-70
2021/04/22 05:34:29;;;;;;;11.65;5.57;;;205.10;2252.80;;;;;;5039039;28;20053;-70
2021/04/22 05:36:55;;;;;;;10.13;6.07;;;205.20;2252.80;;;;;;5039502;28;20032;-69
2021/04/22 05:39:22;;;;;;;7.85;5.75;;;205.30;2252.80;;;;;;5039382;28;20035;-70
2021/04/22 05:41:52;;;;;;;54.00;27.45;;;205.30;2252.80;;;;;;5039196;28;20068;-69
2021/04/22 05:44:18;;;;;;;26.48;15.55;;;205.40;2252.80;;;;;;5039358;28;20036;-70
2021/04/22 05:46:44;;;;;;;17.67;11.85;;;205.60;2252.80;;;;;;5039056;28;20026;-69
2021/04/22 05:49:11;;;;;;;43.53;22.55;;;205.50;2252.80;;;;;;5039011;28;20030;-70
2021/04/22 05:51:38;;;;;;;14.88;8.68;;;205.60;2252.80;;;;;;5038672;28;20112;-69
2021/04/22 05:54:05;;;;;;;12.35;7.47;;;205.60;2252.80;;;;;;5038810;28;20040;-69
2021/04/22 05:56:31;;;;;;;15.75;9.07;;;205.60;2252.80;;;;;;5038581;28;20116;-70
2021/04/22 05:58:57;;;;;;;14.38;9.00;;;205.70;2252.80;;;;;;5038520;28;20362;-71
2021/04/22 06:01:23;;;;;;;25.58;8.52;;;230.40;2252.80;;;;;;5038457;28;20035;-70
2021/04/22 06:03:49;;;;;;;17.25;10.70;;;230.50;2252.80;;;;;;5038404;28;20035;-70
2021/04/22 06:06:15;;;;;;;17.67;11.05;;;230.60;2252.80;;;;;;5038577;28;20033;-70
2021/04/22 06:08:41;;;;;;;19.13;12.10;;;230.80;2252.80;;;;;;5038590;28;20372;-70
2021/04/22 06:11:07;;;;;;;17.02;8.32;;;230.80;2252.80;;;;;;5038603;28;20026;-70
2021/04/22 06:13:32;;;;;;;18.10;8.07;;;230.80;2252.80;;;;;;5038760;28;20017;-70
2021/04/22 06:15:58;;;;;;;18.02;8.80;;;230.90;2252.80;;;;;;5038456;28;20112;-70
2021/04/22 06:18:24;;;;;;;17.67;8.00;;;231.00;2252.80;;;;;;5038415;28;20113;-71
2021/04/22 06:20:50;;;;;;;15.38;8.60;;;231.00;2252.80;;;;;;5038371;28;20438;-70
2021/04/22 06:23:16;;;;;;;16.00;7.50;;;231.10;2252.80;;;;;;5038061;28;20053;-71
2021/04/22 06:25:43;;;;;;;11.35;6.03;;;231.20;2252.80;;;;;;5038558;28;20331;-70
2021/04/22 06:28:09;;;;;;;10.63;5.95;;;231.30;2252.80;;;;;;5038210;28;20022;-69
2021/04/22 06:30:35;;;;;;;11.82;6.32;;;256.10;2252.80;;;;;;5037618;28;20040;-69
2021/04/22 06:33:01;;;;;;;11.85;7.00;;;256.20;2252.80;;;;;;5038418;28;20025;-70
2021/04/22 06:35:27;;;;;;;28.88;11.27;;;256.50;2252.80;;;;;;5038051;28;20164;-70
2021/04/22 06:37:53;;;;;;;24.50;11.25;;;256.60;2252.80;;;;;;5037484;28;20430;-70
2021/04/22 06:40:22;;;;;;;12.40;5.95;;;256.70;2252.80;;;;;;5037379;28;20060;-70
2021/04/22 06:42:49;;;;;;;17.67;9.23;;;256.80;2252.80;;;;;;5038247;28;20021;-70
2021/04/22 06:45:16;;;;;;;13.05;6.45;;;256.90;2252.80;;;;;;5037109;28;20324;-70
2021/04/22 06:47:43;;;;;;;13.48;8.52;;;281.60;2278.40;;;;;;5038145;28;20430;-70
2021/04/22 06:50:12;;;;;;;9.25;5.95;;;281.70;2278.40;;;;;;5037505;28;20080;-70
2021/04/22 06:52:38;;;;;;;9.73;5.70;;;281.70;2278.40;;;;;;5036603;28;20124;-70
2021/04/22 06:55:13;;;;;;;10.98;5.30;;;281.80;2278.40;;;;;;5036683;28;20033;-70
2021/04/22 06:57:38;;;;;;;9.02;4.07;;;282.00;2278.40;;;;;;5035490;28;20029;-70
2021/04/22 07:00:10;;;;;;;10.95;5.10;;;282.10;2278.40;;;;;;5036077;28;20095;-70
2021/04/22 07:02:37;;;;;;;10.05;5.30;;;282.30;2278.40;;;;;;5036407;28;20394;-71
2021/04/22 07:05:04;;;;;;;9.50;4.78;;;282.40;2278.40;;;;;;5036160;28;20112;-70
2021/04/22 07:07:30;;;;;;;7.88;5.15;;;307.20;2304.00;;;;;;5036358;28;20025;-69
2021/04/22 07:09:56;;;;;;;9.40;5.07;;;307.20;2304.00;;;;;;5036058;28;20052;-70
2021/04/22 07:12:21;;;;;;;13.73;6.15;;;307.40;2304.00;;;;;;5035784;28;20320;-70
2021/04/22 07:14:47;;;;;;;13.00;5.82;;;307.50;2304.00;;;;;;5036161;28;20029;-71
2021/04/22 07:17:13;;;;;;;8.77;5.25;;;307.50;2252.80;;;;;;5035958;28;20392;-71
2021/04/22 07:19:39;;;;;;;11.55;5.32;;;307.60;2304.00;;;;;;5035886;28;20090;-68
2021/04/22 07:22:06;;;;;;;16.63;5.07;;;307.70;2304.00;;;;;;5035894;28;20105;-70
2021/04/22 07:24:32;;;;;;;9.13;5.38;;;307.80;2304.00;;;;;;5035844;28;20033;-70
2021/04/22 07:26:58;;;;;;;12.10;6.32;;;307.90;2304.00;;;;;;5035602;28;20032;-70
2021/04/22 07:29:24;;;;;;;16.25;5.10;;;332.80;2278.40;;;;;;5035561;28;20048;-69
2021/04/22 07:31:49;;;;;;;20.45;7.70;;;332.80;2252.80;;;;;;5035519;28;20037;-70
2021/04/22 07:34:15;;;;;;;11.73;6.50;;;332.90;2201.60;;;;;;5035238;28;20049;-69
2021/04/22 07:36:41;;;;;;;9.20;5.50;;;332.90;2176.00;;;;;;5032801;28;20030;-70
2021/04/22 07:39:07;;;;;;;7.60;4.63;;;333.10;2227.20;;;;;;5035807;28;20188;-71
2021/04/22 07:41:33;;;;;;;9.18;4.82;;;333.10;2150.40;;;;;;5035402;28;20025;-69
2021/04/22 07:43:59;;;;;;;7.70;4.57;;;333.20;2124.80;;;;;;5036531;28;20018;-70
2021/04/22 07:46:24;;;;;;;9.68;4.68;;;333.40;2124.80;;;;;;5036789;28;20030;-70
2021/04/22 07:48:50;;;;;;;7.60;4.25;;;333.60;2124.80;;;;;;5036757;28;20027;-70
2021/04/22 07:51:16;;;;;;;7.63;4.60;;;358.40;2048.00;;;;;;5037960;28;20108;-71
2021/04/22 07:53:42;;;;;;;9.63;5.43;;;358.70;2048.00;;;;;;5039125;28;20343;-70
2021/04/22 07:56:08;;;;;;;9.13;4.40;;;359.00;2022.40;;;;;;5039690;28;20033;-69
2021/04/22 07:58:34;;;;;;;7.70;4.80;;;359.10;2022.40;;;;;;5040525;28;20025;-70
2021/04/22 08:01:06;;;;;;;10.75;4.65;;;384.00;1996.80;;;;;;5042237;28;20041;-70
2021/04/22 08:03:32;;;;;;;10.25;4.10;;;384.10;1971.20;;;;;;5058682;28;20429;-69
2021/04/22 08:05:57;;;;;;;9.60;4.53;;;384.30;1894.40;;;;;;5058607;28;20108;-69
2021/04/22 08:08:24;;;;;;;6.85;4.18;;;384.50;1868.80;;;;;;5058708;28;20025;-70
2021/04/22 08:10:55;;;;;;;9.00;5.88;;;384.50;1843.20;;;;;;5059871;28;20427;-69
2021/04/22 08:13:21;;;;;;;9.25;6.90;;;384.90;1843.20;;;;;;5059613;28;20108;-71
2021/04/22 08:15:50;;;;;;;13.95;4.25;;;409.80;1843.20;;;;;;5060004;28;20036;-70
2021/04/22 08:18:17;;;;;;;8.45;4.50;;;409.90;1817.60;;;;;;5039632;28;20056;-69
2021/04/22 08:20:44;;;;;;;7.30;3.70;;;409.90;1766.40;;;;;;5038112;28;20487;-69
2021/04/22 08:23:11;;;;;;;5.70;3.00;;;409.90;1689.60;;;;;;5039606;28;20164;-69
2021/04/22 08:25:39;;;;;;;5.32;2.97;;;409.80;1664.00;;;;;;5038520;28;20033;-70
2021/04/22 08:28:08;;;;;;;5.18;3.00;;;409.80;1715.20;;;;;;5040308;28;20164;-70
2021/04/22 08:30:36;;;;;;;;;;;409.70;1689.60;;;;;;5038386;28;20029;-71
2021/04/22 08:33:03;;;;;;;6.67;3.33;;;409.70;1664.00;;;;;;5039962;28;19912;-70
2021/04/22 08:35:29;;;;;;;5.13;2.80;;;409.60;1638.40;;;;;;5039716;28;20072;-69
2021/04/22 08:37:55;;;;;;;7.72;3.30;;;409.70;1587.20;;;;;;5039040;28;20025;-70
2021/04/22 08:40:23;;;;;;;15.85;8.75;;;409.70;1715.20;;;;;;5039169;28;20123;-70
2021/04/22 08:42:49;;;;;;;5.63;3.10;;;409.70;1689.60;;;;;;5034841;28;20052;-70
2021/04/22 08:45:16;;;;;;;6.93;3.05;;;409.70;1638.40;;;;;;5037522;28;20045;-69
2021/04/22 08:47:43;;;;;;;7.75;3.33;;;409.80;1638.40;;;;;;5037120;28;20029;-69
2021/04/22 08:50:21;;;;;;;18.25;6.90;;;409.90;1638.40;;;;;;5037019;28;20433;-69
2021/04/22 08:52:49;;;;;;;4.22;2.78;;;410.30;1612.80;;;;;;5037421;28;20033;-70
2021/04/22 08:55:16;;;;;;;19.25;6.78;;;410.30;1536.00;;;;;;5039865;28;20029;-70
2021/04/22 08:57:42;;;;;;;5.50;2.90;;;435.20;1536.00;;;;;;5036361;28;20036;-70
2021/04/22 09:00:11;;;;;;;4.70;2.80;;;435.30;1587.20;;;;;;5038681;28;20338;-70
2021/04/22 09:02:37;;;;;;;6.07;3.63;;;435.30;1561.60;;;;;;5038789;28;20033;-69
2021/04/22 09:05:04;;;;;;;5.20;2.40;;;435.30;1510.40;;;;;;5039733;28;20029;-70
2021/04/22 09:07:30;;;;;;;3.78;2.55;;;435.50;1484.80;;;;;;5039662;28;20097;-71
2021/04/22 09:09:56;;;;;;;4.55;2.65;;;435.80;1484.80;;;;;;5039746;28;20067;-70
2021/04/22 09:12:22;;;;;;;4.70;2.85;;;460.80;1459.20;;;;;;5039149;28;20036;-70
2021/04/22 09:15:04;;;;;;;5.05;2.90;;;461.00;1484.80;;;;;;5038710;28;20323;-70
2021/04/22 09:17:30;;;;;;;4.97;3.55;;;461.20;1433.60;;;;;;5035837;28;20442;-71
2021/04/22 09:19:56;;;;;;;5.90;2.60;;;461.60;1484.80;;;;;;5036318;28;20052;-70
2021/04/22 09:22:33;;;;;;;4.07;2.08;;;461.50;1382.40;;;;;;5037626;28;20021;-71
2021/04/22 09:25:13;;;;;;;5.75;2.40;;;461.60;1356.80;;;;;;5036227;28;20048;-70
2021/04/22 09:27:39;;;;;;;5.53;3.78;;;461.50;1356.80;;;;;;5039169;28;20033;-71
2021/04/22 09:30:06;;;;;;;5.63;3.53;;;461.60;1356.80;;;;;;5037485;28;20031;-69
2021/04/22 09:32:33;;;;;;;7.82;2.58;;;461.60;1433.60;;;;;;5038550;28;20053;-70
2021/04/22 09:35:11;;;;;;;6.15;2.95;;;461.40;1408.00;;;;;;5039304;28;20050;-71
2021/04/22 09:37:37;;;;;;;7.18;2.95;;;461.60;1408.00;;;;;;5038931;28;20030;-70
2021/04/22 09:40:18;;;;;;;5.38;2.83;;;486.40;1408.00;;;;;;5038979;28;20029;-70
2021/04/22 09:42:44;;;;;;;5.60;2.58;;;486.40;1382.40;;;;;;5039046;28;20032;-71
2021/04/22 09:45:15;;;;;;;4.82;3.00;;;461.60;1382.40;;;;;;5038498;28;20339;-72
2021/04/22 09:47:42;;;;;;;5.57;3.10;;;461.70;1433.60;;;;;;5038370;28;20324;-70
2021/04/22 09:50:14;;;;;;;9.25;5.53;;;486.60;1382.40;;;;;;5038575;28;20028;-69
2021/04/22 09:52:43;;;;;;;5.05;3.30;;;487.00;1408.00;;;;;;5037921;28;20396;-71
2021/04/22 09:55:13;;;;;;;7.05;3.67;;;512.00;1356.80;;;;;;5037160;28;20131;-69
2021/04/22 09:57:39;;;;;;;8.13;3.83;;;487.30;1356.80;;;;;;5038154;28;20055;-70
2021/04/22 10:00:14;;;;;;;6.65;2.50;;;512.10;1280.00;;;;;;5038222;28;20330;-71
2021/04/22 10:02:57;;;;;;;4.70;2.40;;;512.20;1331.20;;;;;;5037984;28;20300;-71
2021/04/22 10:05:28;;;;;;;3.70;2.30;;;512.30;1305.60;;;;;;5038573;28;20030;-71
2021/04/22 10:08:08;;;;;;;7.20;2.25;;;512.30;1280.00;;;;;;5037917;28;20116;-70
2021/04/22 10:10:38;;;;;;;6.40;2.33;;;512.10;1254.40;;;;;;5037339;28;20029;-72
2021/04/22 10:13:07;;;;;;;5.65;2.08;;;512.00;1305.60;;;;;;5035716;28;20028;-70
2021/04/22 10:15:33;;;;;;;5.90;2.85;;;512.10;1280.00;;;;;;5036570;28;20044;-70
2021/04/22 10:18:03;;;;;;;4.72;3.25;;;487.00;1280.00;;;;;;5037874;28;20071;-71
2021/04/22 10:20:37;;;;;;;3.72;2.00;;;487.10;1280.00;;;;;;5038008;28;20029;-71
2021/04/22 10:23:05;;;;;;;3.70;2.30;;;487.00;1228.80;;;;;;5037939;28;20415;-70
2021/04/22 10:25:34;;;;;;;5.70;2.65;;;487.10;1305.60;;;;;;5037626;28;20167;-72
2021/04/22 10:28:08;;;;;;;5.63;1.95;;;487.20;1280.00;;;;;;5035332;28;20033;-69
2021/04/22 10:30:35;;;;;;;7.13;5.97;;;512.20;1254.40;;;;;;5036987;28;20025;-71
2021/04/22 10:33:01;;;;;;;6.15;2.92;;;512.20;1228.80;;;;;;5035126;28;20040;-70
2021/04/22 10:35:29;;;;;;;4.10;2.10;;;512.30;1228.80;;;;;;5056369;28;20057;-71
2021/04/22 10:37:56;;;;;;;3.40;2.08;;;512.80;1203.20;;;;;;5018162;28;20025;-71
2021/04/22 10:40:29;;;;;;;4.25;2.45;;;537.60;1228.80;;;;;;5027469;28;20482;-69
2021/04/22 10:42:57;;;;;;;6.50;2.80;;;512.50;1177.60;;;;;;5039597;28;20123;-70
2021/04/22 10:45:25;;;;;;;4.57;2.00;;;512.30;1228.80;;;;;;5040657;28;20341;-71
2021/04/22 10:47:51;;;;;;;4.20;2.47;;;512.20;1228.80;;;;;;5036985;28;20029;-69
2021/04/22 10:50:24;;;;;;;3.97;2.13;;;512.30;1228.80;;;;;;5037028;28;20025;-69
2021/04/22 10:52:52;;;;;;;2.90;2.00;;;512.50;1228.80;;;;;;5037839;28;20083;-72
2021/04/22 10:55:31;;;;;;;6.28;2.38;;;512.30;1203.20;;;;;;5037032;28;20128;-69
2021/04/22 10:58:20;;;;;;;4.10;1.95;;;512.30;1254.40;;;;;;5037097;28;20338;-71
2021/04/22 11:00:59;;;;;;;4.18;1.80;;;512.60;1254.40;;;;;;5039732;28;20408;-69
2021/04/22 11:03:28;;;;;;;3.60;2.50;;;512.90;1177.60;;;;;;5056933;28;20055;-71
2021/04/22 11:06:05;;;;;;;5.40;2.33;;;512.70;1203.20;;;;;;5057163;28;20049;-72
2021/04/22 11:08:41;;;;;;;6.78;4.65;;;512.30;1254.40;;;;;;5057579;28;20031;-70
2021/04/22 11:11:27;;;;;;;7.03;4.55;;;512.10;1228.80;;;;;;5048134;28;20036;-72
2021/04/22 11:14:15;;;;;;;4.35;3.17;;;512.40;1228.80;;;;;;5056895;28;20021;-70
2021/04/22 11:16:50;;;;;;;6.88;2.55;;;537.70;1203.20;;;;;;5050235;28;20032;-70
2021/04/22 11:19:23;;;;;;;5.05;2.72;;;537.70;1203.20;;;;;;5036509;28;20025;-71
2021/04/22 11:21:54;;;;;;;5.85;2.15;;;537.80;1228.80;;;;;;5036025;28;20026;-70
2021/04/22 11:24:33;;;;;;;4.18;2.28;;;537.90;1203.20;;;;;;5036069;28;20025;-70
2021/04/22 11:27:08;;;;;;;19.17;3.22;;;537.70;1203.20;;;;;;5036210;28;20042;-71
2021/04/22 11:29:52;;;;;;;4.45;2.30;;;538.00;1203.20;;;;;;5036386;28;20112;-70
2021/04/22 11:32:32;;;;;;;3.55;2.13;;;538.20;1203.20;;;;;;5040683;28;20032;-69
2021/04/22 11:35:15;;;;;;;5.32;2.78;;;538.30;1177.60;;;;;;5036885;28;20419;-70
2021/04/22 11:37:43;;;;;;;6.78;2.90;;;538.20;1152.00;;;;;;5036832;28;20052;-70
2021/04/22 11:40:35;;;;;;;12.30;2.67;;;538.00;1177.60;;;;;;5038202;28;20319;-70
2021/04/22 11:43:01;;;;;;;7.22;1.98;;;537.90;1177.60;;;;;;5046192;28;20021;-69
2021/04/22 11:45:31;;;;;;;6.30;1.98;;;537.90;1152.00;;;;;;5056257;28;20033;-71
2021/04/22 11:47:58;;;;;;;3.55;2.35;;;537.90;1152.00;;;;;;5055920;28;20025;-70
2021/04/22 11:50:46;;;;;;;7.07;2.45;;;537.70;1177.60;;;;;;5056290;28;20029;-70
2021/04/22 11:53:12;;;;;;;7.60;2.63;;;537.70;1177.60;;;;;;5055386;28;20033;-69
2021/04/22 11:55:50;;;;;;;21.67;4.30;;;512.90;1177.60;;;;;;5056130;28;20032;-72
2021/04/22 11:58:18;;;;;;;7.60;4.50;;;537.70;1203.20;;;;;;5056436;28;20424;-71
2021/04/22 12:00:48;;;;;;;8.98;5.93;;;538.00;1203.20;;;;;;5052846;28;20022;-69
2021/04/22 12:03:30;;;;;;;5.38;3.65;;;538.00;1177.60;;;;;;5038020;28;20094;-70
2021/04/22 12:06:02;;;;;;;3.22;2.00;;;538.20;1177.60;;;;;;5054015;28;20029;-71
2021/04/22 12:08:34;;;;;;;8.02;4.07;;;538.30;1152.00;;;;;;5054659;28;20025;-70
2021/04/22 12:11:02;;;;;;;9.85;3.10;;;563.40;1177.60;;;;;;5055542;28;20421;-70
2021/04/22 12:13:28;;;;;;;51.63;37.75;;;563.70;1152.00;;;;;;5055416;28;20048;-69
2021/04/22 12:15:57;;;;;;;22.27;16.05;;;563.80;1177.60;;;;;;5056877;28;20051;-70
2021/04/22 12:18:40;;;;;;;77.95;49.83;;;563.70;1152.00;;;;;;5056424;28;20052;-69